sensor_id;sensor_type;location;lat;lon;timestamp;P1;durP1;ratioP1;P2;durP2;ratioP2
54167;SDS011;68429;50.958;3.592;2023-09-07T00:02:22;13.07;;;6.75;;
54167;SDS011;68429;50.958;3.592;2023-09-07T00:04:47;7.05;;;6.25;;
54167;SDS011;68429;50.958;3.592;2023-09-07T00:07:14;11.13;;;6.93;;
54167;SDS011;68429;50.958;3.592;2023-09-07T00:09:40;13.00;;;6.55;;
54167;SDS011;68429;50.958;3.592;2023-09-07T00:12:06;7.53;;;6.32;;
54167;SDS011;68429;50.958;3.592;2023-09-07T00:14:32;8.68;;;5.85;;
54167;SDS011;68429;50.958;3.592;2023-09-07T00:16:57;7.20;;;6.50;;
54167;SDS011;68429;50.958;3.592;2023-09-07T00:19:23;9.10;;;6.43;;
54167;SDS011;68429;50.958;3.592;2023-09-07T00:21:48;8.88;;;6.88;;
54167;SDS011;68429;50.958;3.592;2023-09-07T00:24:17;13.82;;;6.45;;
54167;SDS011;68429;50.958;3.592;2023-09-07T00:26:42;7.70;;;6.20;;
54167;SDS011;68429;50.958;3.592;2023-09-07T00:29:11;9.68;;;6.80;;
54167;SDS011;68429;50.958;3.592;2023-09-07T00:31:37;12.00;;;6.73;;
54167;SDS011;68429;50.958;3.592;2023-09-07T00:34:02;9.13;;;6.95;;
54167;SDS011;68429;50.958;3.592;2023-09-07T00:36:31;12.50;;;7.47;;
54167;SDS011;68429;50.958;3.592;2023-09-07T00:39:00;12.80;;;7.13;;
54167;SDS011;68429;50.958;3.592;2023-09-07T00:41:25;9.52;;;7.10;;
54167;SDS011;68429;50.958;3.592;2023-09-07T00:43:51;7.70;;;7.00;;
54167;SDS011;68429;50.958;3.592;2023-09-07T00:46:26;10.93;;;7.18;;
54167;SDS011;68429;50.958;3.592;2023-09-07T00:48:52;11.80;;;7.28;;
54167;SDS011;68429;50.958;3.592;2023-09-07T00:51:17;13.23;;;8.75;;
54167;SDS011;68429;50.958;3.592;2023-09-07T00:53:43;8.43;;;7.57;;
54167;SDS011;68429;50.958;3.592;2023-09-07T00:56:09;8.80;;;7.55;;
54167;SDS011;68429;50.958;3.592;2023-09-07T00:58:35;11.18;;;8.15;;
54167;SDS011;68429;50.958;3.592;2023-09-07T01:01:02;12.60;;;8.35;;
54167;SDS011;68429;50.958;3.592;2023-09-07T01:03:28;14.75;;;9.18;;
54167;SDS011;68429;50.958;3.592;2023-09-07T01:08:30;11.98;;;8.82;;
54167;SDS011;68429;50.958;3.592;2023-09-07T01:11:13;9.60;;;8.00;;
54167;SDS011;68429;50.958;3.592;2023-09-07T01:13:40;10.48;;;8.32;;
54167;SDS011;68429;50.958;3.592;2023-09-07T01:16:07;11.43;;;8.13;;
54167;SDS011;68429;50.958;3.592;2023-09-07T01:18:34;14.27;;;8.43;;
54167;SDS011;68429;50.958;3.592;2023-09-07T01:21:03;9.55;;;8.52;;
54167;SDS011;68429;50.958;3.592;2023-09-07T01:23:36;13.00;;;8.63;;
54167;SDS011;68429;50.958;3.592;2023-09-07T01:26:05;14.77;;;9.95;;
54167;SDS011;68429;50.958;3.592;2023-09-07T01:28:31;20.33;;;12.00;;
54167;SDS011;68429;50.958;3.592;2023-09-07T01:30:57;13.77;;;12.05;;
54167;SDS011;68429;50.958;3.592;2023-09-07T01:33:23;17.08;;;13.32;;
54167;SDS011;68429;50.958;3.592;2023-09-07T01:35:49;12.70;;;10.07;;
54167;SDS011;68429;50.958;3.592;2023-09-07T01:38:14;15.15;;;11.00;;
54167;SDS011;68429;50.958;3.592;2023-09-07T01:40:40;12.25;;;10.30;;
54167;SDS011;68429;50.958;3.592;2023-09-07T01:43:05;14.07;;;11.13;;
54167;SDS011;68429;50.958;3.592;2023-09-07T01:45:31;18.33;;;11.68;;
54167;SDS011;68429;50.958;3.592;2023-09-07T01:47:58;13.55;;;11.48;;
54167;SDS011;68429;50.958;3.592;2023-09-07T01:50:24;16.25;;;10.90;;
54167;SDS011;68429;50.958;3.592;2023-09-07T01:52:52;14.35;;;11.48;;
54167;SDS011;68429;50.958;3.592;2023-09-07T01:55:18;15.77;;;12.57;;
54167;SDS011;68429;50.958;3.592;2023-09-07T01:57:44;19.25;;;12.13;;
54167;SDS011;68429;50.958;3.592;2023-09-07T02:00:10;17.02;;;12.05;;
54167;SDS011;68429;50.958;3.592;2023-09-07T02:02:36;14.55;;;12.23;;
54167;SDS011;68429;50.958;3.592;2023-09-07T02:05:03;13.38;;;12.02;;
54167;SDS011;68429;50.958;3.592;2023-09-07T02:07:29;18.02;;;12.48;;
54167;SDS011;68429;50.958;3.592;2023-09-07T02:09:54;16.30;;;12.43;;
54167;SDS011;68429;50.958;3.592;2023-09-07T02:12:20;16.02;;;12.65;;
54167;SDS011;68429;50.958;3.592;2023-09-07T02:14:46;14.77;;;13.18;;
54167;SDS011;68429;50.958;3.592;2023-09-07T02:17:11;17.25;;;14.52;;
54167;SDS011;68429;50.958;3.592;2023-09-07T02:19:42;18.25;;;12.82;;
54167;SDS011;68429;50.958;3.592;2023-09-07T02:22:08;19.35;;;14.75;;
54167;SDS011;68429;50.958;3.592;2023-09-07T02:24:34;18.48;;;15.02;;
54167;SDS011;68429;50.958;3.592;2023-09-07T02:27:00;17.67;;;15.30;;
54167;SDS011;68429;50.958;3.592;2023-09-07T02:29:26;17.55;;;15.82;;
54167;SDS011;68429;50.958;3.592;2023-09-07T02:31:52;18.30;;;15.88;;
54167;SDS011;68429;50.958;3.592;2023-09-07T02:34:17;19.05;;;15.60;;
54167;SDS011;68429;50.958;3.592;2023-09-07T02:36:43;19.45;;;16.27;;
54167;SDS011;68429;50.958;3.592;2023-09-07T02:39:09;18.10;;;16.05;;
54167;SDS011;68429;50.958;3.592;2023-09-07T02:41:36;21.98;;;16.08;;
54167;SDS011;68429;50.958;3.592;2023-09-07T02:44:03;23.27;;;15.52;;
54167;SDS011;68429;50.958;3.592;2023-09-07T02:46:29;21.80;;;16.92;;
54167;SDS011;68429;50.958;3.592;2023-09-07T02:48:56;17.95;;;15.48;;
54167;SDS011;68429;50.958;3.592;2023-09-07T02:51:23;17.70;;;15.10;;
54167;SDS011;68429;50.958;3.592;2023-09-07T02:53:49;17.98;;;15.13;;
54167;SDS011;68429;50.958;3.592;2023-09-07T02:56:15;18.52;;;14.98;;
54167;SDS011;68429;50.958;3.592;2023-09-07T02:58:41;21.55;;;16.65;;
54167;SDS011;68429;50.958;3.592;2023-09-07T03:01:10;24.90;;;16.52;;
54167;SDS011;68429;50.958;3.592;2023-09-07T03:03:37;21.90;;;15.32;;
54167;SDS011;68429;50.958;3.592;2023-09-07T03:06:09;20.90;;;15.68;;
54167;SDS011;68429;50.958;3.592;2023-09-07T03:08:36;20.83;;;15.25;;
54167;SDS011;68429;50.958;3.592;2023-09-07T03:11:03;20.13;;;15.95;;
54167;SDS011;68429;50.958;3.592;2023-09-07T03:13:29;18.30;;;15.63;;
54167;SDS011;68429;50.958;3.592;2023-09-07T03:15:55;20.58;;;15.27;;
54167;SDS011;68429;50.958;3.592;2023-09-07T03:18:21;16.73;;;14.20;;
54167;SDS011;68429;50.958;3.592;2023-09-07T03:20:47;20.10;;;14.80;;
54167;SDS011;68429;50.958;3.592;2023-09-07T03:23:12;26.02;;;16.20;;
54167;SDS011;68429;50.958;3.592;2023-09-07T03:25:38;17.95;;;15.57;;
54167;SDS011;68429;50.958;3.592;2023-09-07T03:28:04;17.85;;;15.35;;
54167;SDS011;68429;50.958;3.592;2023-09-07T03:30:30;20.52;;;15.38;;
54167;SDS011;68429;50.958;3.592;2023-09-07T03:32:56;21.45;;;15.68;;
54167;SDS011;68429;50.958;3.592;2023-09-07T03:35:21;20.02;;;16.10;;
54167;SDS011;68429;50.958;3.592;2023-09-07T03:37:47;23.55;;;15.30;;
54167;SDS011;68429;50.958;3.592;2023-09-07T03:40:12;20.50;;;15.57;;
54167;SDS011;68429;50.958;3.592;2023-09-07T03:42:38;17.48;;;14.80;;
54167;SDS011;68429;50.958;3.592;2023-09-07T03:45:04;18.90;;;15.68;;
54167;SDS011;68429;50.958;3.592;2023-09-07T03:47:30;18.92;;;15.60;;
54167;SDS011;68429;50.958;3.592;2023-09-07T03:49:56;20.45;;;14.82;;
54167;SDS011;68429;50.958;3.592;2023-09-07T03:52:23;20.45;;;14.57;;
54167;SDS011;68429;50.958;3.592;2023-09-07T03:54:51;17.42;;;13.65;;
54167;SDS011;68429;50.958;3.592;2023-09-07T03:57:19;18.83;;;14.77;;
54167;SDS011;68429;50.958;3.592;2023-09-07T03:59:45;19.15;;;14.82;;
54167;SDS011;68429;50.958;3.592;2023-09-07T04:02:11;17.73;;;14.77;;
54167;SDS011;68429;50.958;3.592;2023-09-07T04:04:37;16.95;;;14.40;;
54167;SDS011;68429;50.958;3.592;2023-09-07T04:07:03;18.25;;;14.88;;
54167;SDS011;68429;50.958;3.592;2023-09-07T04:09:29;18.60;;;14.30;;
54167;SDS011;68429;50.958;3.592;2023-09-07T04:11:54;15.25;;;13.63;;
54167;SDS011;68429;50.958;3.592;2023-09-07T04:14:20;14.60;;;12.38;;
54167;SDS011;68429;50.958;3.592;2023-09-07T04:16:46;15.63;;;12.70;;
54167;SDS011;68429;50.958;3.592;2023-09-07T04:19:11;19.98;;;14.40;;
54167;SDS011;68429;50.958;3.592;2023-09-07T04:21:37;16.13;;;14.48;;
54167;SDS011;68429;50.958;3.592;2023-09-07T04:24:03;20.52;;;15.82;;
54167;SDS011;68429;50.958;3.592;2023-09-07T04:26:30;18.20;;;14.55;;
54167;SDS011;68429;50.958;3.592;2023-09-07T04:28:55;21.23;;;15.68;;
54167;SDS011;68429;50.958;3.592;2023-09-07T04:31:21;26.80;;;17.02;;
54167;SDS011;68429;50.958;3.592;2023-09-07T04:33:49;24.92;;;17.90;;
54167;SDS011;68429;50.958;3.592;2023-09-07T04:36:15;22.55;;;17.80;;
54167;SDS011;68429;50.958;3.592;2023-09-07T04:38:40;20.40;;;16.67;;
54167;SDS011;68429;50.958;3.592;2023-09-07T04:41:10;22.30;;;16.60;;
54167;SDS011;68429;50.958;3.592;2023-09-07T04:43:37;21.50;;;15.75;;
54167;SDS011;68429;50.958;3.592;2023-09-07T04:46:10;17.17;;;14.93;;
54167;SDS011;68429;50.958;3.592;2023-09-07T04:48:37;19.27;;;15.55;;
54167;SDS011;68429;50.958;3.592;2023-09-07T04:51:04;18.42;;;15.98;;
54167;SDS011;68429;50.958;3.592;2023-09-07T04:53:31;21.52;;;16.08;;
54167;SDS011;68429;50.958;3.592;2023-09-07T04:56:00;21.17;;;15.85;;
54167;SDS011;68429;50.958;3.592;2023-09-07T04:58:26;20.80;;;16.77;;
54167;SDS011;68429;50.958;3.592;2023-09-07T05:00:52;19.45;;;16.13;;
54167;SDS011;68429;50.958;3.592;2023-09-07T05:03:17;27.73;;;18.13;;
54167;SDS011;68429;50.958;3.592;2023-09-07T05:05:43;23.73;;;16.42;;
54167;SDS011;68429;50.958;3.592;2023-09-07T05:08:10;21.50;;;17.02;;
54167;SDS011;68429;50.958;3.592;2023-09-07T05:10:36;19.45;;;16.45;;
54167;SDS011;68429;50.958;3.592;2023-09-07T05:13:03;26.70;;;17.27;;
54167;SDS011;68429;50.958;3.592;2023-09-07T05:15:28;21.95;;;19.00;;
54167;SDS011;68429;50.958;3.592;2023-09-07T05:17:54;23.42;;;17.80;;
54167;SDS011;68429;50.958;3.592;2023-09-07T05:20:20;19.15;;;17.00;;
54167;SDS011;68429;50.958;3.592;2023-09-07T05:22:46;22.48;;;17.23;;
54167;SDS011;68429;50.958;3.592;2023-09-07T05:25:12;22.27;;;17.88;;
54167;SDS011;68429;50.958;3.592;2023-09-07T05:27:38;24.90;;;18.08;;
54167;SDS011;68429;50.958;3.592;2023-09-07T05:30:04;25.70;;;17.77;;
54167;SDS011;68429;50.958;3.592;2023-09-07T05:32:30;22.48;;;18.02;;
54167;SDS011;68429;50.958;3.592;2023-09-07T05:34:56;26.25;;;18.02;;
54167;SDS011;68429;50.958;3.592;2023-09-07T05:37:22;29.05;;;17.83;;
54167;SDS011;68429;50.958;3.592;2023-09-07T05:39:47;22.63;;;15.93;;
54167;SDS011;68429;50.958;3.592;2023-09-07T05:42:14;21.48;;;16.67;;
54167;SDS011;68429;50.958;3.592;2023-09-07T05:44:39;17.40;;;15.55;;
54167;SDS011;68429;50.958;3.592;2023-09-07T05:47:05;21.00;;;15.35;;
54167;SDS011;68429;50.958;3.592;2023-09-07T05:49:31;17.30;;;15.38;;
54167;SDS011;68429;50.958;3.592;2023-09-07T05:51:56;23.90;;;16.05;;
54167;SDS011;68429;50.958;3.592;2023-09-07T05:54:22;17.83;;;14.45;;
54167;SDS011;68429;50.958;3.592;2023-09-07T05:56:48;19.83;;;15.55;;
54167;SDS011;68429;50.958;3.592;2023-09-07T05:59:13;16.60;;;14.52;;
54167;SDS011;68429;50.958;3.592;2023-09-07T06:01:39;20.40;;;14.43;;
54167;SDS011;68429;50.958;3.592;2023-09-07T06:04:08;16.92;;;13.27;;
54167;SDS011;68429;50.958;3.592;2023-09-07T06:06:34;18.50;;;13.48;;
54167;SDS011;68429;50.958;3.592;2023-09-07T06:09:00;17.17;;;14.10;;
54167;SDS011;68429;50.958;3.592;2023-09-07T06:11:25;17.10;;;13.52;;
54167;SDS011;68429;50.958;3.592;2023-09-07T06:13:51;20.33;;;13.80;;
54167;SDS011;68429;50.958;3.592;2023-09-07T06:16:17;26.98;;;14.85;;
54167;SDS011;68429;50.958;3.592;2023-09-07T06:18:43;21.85;;;13.50;;
54167;SDS011;68429;50.958;3.592;2023-09-07T06:21:09;17.52;;;13.15;;
54167;SDS011;68429;50.958;3.592;2023-09-07T06:23:34;23.73;;;13.13;;
54167;SDS011;68429;50.958;3.592;2023-09-07T06:26:00;21.23;;;13.90;;
54167;SDS011;68429;50.958;3.592;2023-09-07T06:28:26;17.30;;;13.32;;
54167;SDS011;68429;50.958;3.592;2023-09-07T06:30:52;21.95;;;13.10;;
54167;SDS011;68429;50.958;3.592;2023-09-07T06:33:17;17.98;;;12.82;;
54167;SDS011;68429;50.958;3.592;2023-09-07T06:35:43;17.67;;;12.30;;
54167;SDS011;68429;50.958;3.592;2023-09-07T06:38:09;15.60;;;12.02;;
54167;SDS011;68429;50.958;3.592;2023-09-07T06:40:34;27.67;;;12.20;;
54167;SDS011;68429;50.958;3.592;2023-09-07T06:43:00;17.58;;;12.43;;
54167;SDS011;68429;50.958;3.592;2023-09-07T06:45:30;13.77;;;11.00;;
54167;SDS011;68429;50.958;3.592;2023-09-07T06:48:00;18.85;;;10.13;;
54167;SDS011;68429;50.958;3.592;2023-09-07T06:50:26;15.50;;;10.65;;
54167;SDS011;68429;50.958;3.592;2023-09-07T06:52:52;15.57;;;10.48;;
54167;SDS011;68429;50.958;3.592;2023-09-07T06:55:18;20.13;;;10.90;;
54167;SDS011;68429;50.958;3.592;2023-09-07T06:57:43;13.35;;;10.77;;
54167;SDS011;68429;50.958;3.592;2023-09-07T07:00:09;16.95;;;10.90;;
54167;SDS011;68429;50.958;3.592;2023-09-07T07:02:36;12.13;;;10.38;;
54167;SDS011;68429;50.958;3.592;2023-09-07T07:05:03;16.25;;;9.85;;
54167;SDS011;68429;50.958;3.592;2023-09-07T07:07:28;14.60;;;11.00;;
54167;SDS011;68429;50.958;3.592;2023-09-07T07:09:54;14.85;;;11.38;;
54167;SDS011;68429;50.958;3.592;2023-09-07T07:12:20;17.05;;;11.73;;
54167;SDS011;68429;50.958;3.592;2023-09-07T07:14:46;22.55;;;10.57;;
54167;SDS011;68429;50.958;3.592;2023-09-07T07:17:11;31.70;;;11.18;;
54167;SDS011;68429;50.958;3.592;2023-09-07T07:19:37;16.35;;;10.23;;
54167;SDS011;68429;50.958;3.592;2023-09-07T07:22:03;18.23;;;10.07;;
54167;SDS011;68429;50.958;3.592;2023-09-07T07:24:28;19.30;;;10.43;;
54167;SDS011;68429;50.958;3.592;2023-09-07T07:26:54;15.20;;;9.73;;
54167;SDS011;68429;50.958;3.592;2023-09-07T07:29:20;17.20;;;9.85;;
54167;SDS011;68429;50.958;3.592;2023-09-07T07:31:45;14.00;;;8.80;;
54167;SDS011;68429;50.958;3.592;2023-09-07T07:34:12;14.23;;;10.23;;
54167;SDS011;68429;50.958;3.592;2023-09-07T07:36:38;13.85;;;9.82;;
54167;SDS011;68429;50.958;3.592;2023-09-07T07:39:04;17.95;;;10.38;;
54167;SDS011;68429;50.958;3.592;2023-09-07T07:41:32;24.55;;;9.57;;
54167;SDS011;68429;50.958;3.592;2023-09-07T07:43:57;13.10;;;9.10;;
54167;SDS011;68429;50.958;3.592;2023-09-07T07:46:23;9.68;;;8.68;;
54167;SDS011;68429;50.958;3.592;2023-09-07T07:48:49;13.57;;;8.95;;
54167;SDS011;68429;50.958;3.592;2023-09-07T07:51:14;12.45;;;8.13;;
54167;SDS011;68429;50.958;3.592;2023-09-07T07:53:40;13.32;;;8.07;;
54167;SDS011;68429;50.958;3.592;2023-09-07T07:56:13;9.55;;;7.97;;
54167;SDS011;68429;50.958;3.592;2023-09-07T07:58:42;10.77;;;7.45;;
54167;SDS011;68429;50.958;3.592;2023-09-07T08:01:13;14.27;;;8.18;;
54167;SDS011;68429;50.958;3.592;2023-09-07T08:03:40;10.25;;;7.28;;
54167;SDS011;68429;50.958;3.592;2023-09-07T08:06:06;16.58;;;8.23;;
54167;SDS011;68429;50.958;3.592;2023-09-07T08:08:31;13.35;;;6.95;;
54167;SDS011;68429;50.958;3.592;2023-09-07T08:10:57;9.98;;;7.30;;
54167;SDS011;68429;50.958;3.592;2023-09-07T08:13:25;12.73;;;6.95;;
54167;SDS011;68429;50.958;3.592;2023-09-07T08:15:50;13.68;;;6.75;;
54167;SDS011;68429;50.958;3.592;2023-09-07T08:18:16;7.03;;;6.32;;
54167;SDS011;68429;50.958;3.592;2023-09-07T08:20:42;8.68;;;6.72;;
54167;SDS011;68429;50.958;3.592;2023-09-07T08:23:07;15.93;;;6.20;;
54167;SDS011;68429;50.958;3.592;2023-09-07T08:25:35;12.75;;;6.22;;
54167;SDS011;68429;50.958;3.592;2023-09-07T08:28:01;16.88;;;6.32;;
54167;SDS011;68429;50.958;3.592;2023-09-07T08:30:30;7.43;;;6.50;;
54167;SDS011;68429;50.958;3.592;2023-09-07T08:32:55;10.30;;;6.75;;
54167;SDS011;68429;50.958;3.592;2023-09-07T08:35:21;10.98;;;6.45;;
54167;SDS011;68429;50.958;3.592;2023-09-07T08:37:52;9.55;;;5.80;;
54167;SDS011;68429;50.958;3.592;2023-09-07T08:40:18;7.22;;;5.13;;
54167;SDS011;68429;50.958;3.592;2023-09-07T08:42:46;8.93;;;5.50;;
54167;SDS011;68429;50.958;3.592;2023-09-07T08:45:13;6.03;;;4.97;;
54167;SDS011;68429;50.958;3.592;2023-09-07T08:47:43;9.90;;;5.53;;
54167;SDS011;68429;50.958;3.592;2023-09-07T08:50:10;8.60;;;5.25;;
54167;SDS011;68429;50.958;3.592;2023-09-07T08:52:37;12.15;;;5.65;;
54167;SDS011;68429;50.958;3.592;2023-09-07T08:55:03;6.00;;;4.80;;
54167;SDS011;68429;50.958;3.592;2023-09-07T08:57:30;12.38;;;5.47;;
54167;SDS011;68429;50.958;3.592;2023-09-07T08:59:56;9.75;;;4.78;;
54167;SDS011;68429;50.958;3.592;2023-09-07T09:02:22;5.25;;;4.47;;
54167;SDS011;68429;50.958;3.592;2023-09-07T09:04:47;7.72;;;4.63;;
54167;SDS011;68429;50.958;3.592;2023-09-07T09:07:13;8.15;;;4.13;;
54167;SDS011;68429;50.958;3.592;2023-09-07T09:09:39;7.45;;;4.50;;
54167;SDS011;68429;50.958;3.592;2023-09-07T09:12:11;5.55;;;4.13;;
54167;SDS011;68429;50.958;3.592;2023-09-07T09:14:38;10.85;;;3.80;;
54167;SDS011;68429;50.958;3.592;2023-09-07T09:17:12;5.93;;;3.50;;
54167;SDS011;68429;50.958;3.592;2023-09-07T09:19:39;9.77;;;4.20;;
54167;SDS011;68429;50.958;3.592;2023-09-07T09:22:04;5.80;;;3.20;;
54167;SDS011;68429;50.958;3.592;2023-09-07T09:24:31;7.18;;;3.97;;
54167;SDS011;68429;50.958;3.592;2023-09-07T09:29:26;8.05;;;4.00;;
54167;SDS011;68429;50.958;3.592;2023-09-07T09:31:52;3.97;;;3.40;;
54167;SDS011;68429;50.958;3.592;2023-09-07T09:34:18;6.72;;;3.50;;
54167;SDS011;68429;50.958;3.592;2023-09-07T09:36:45;6.03;;;3.80;;
54167;SDS011;68429;50.958;3.592;2023-09-07T09:39:20;5.70;;;3.67;;
54167;SDS011;68429;50.958;3.592;2023-09-07T09:41:46;7.32;;;3.60;;
54167;SDS011;68429;50.958;3.592;2023-09-07T09:44:12;5.93;;;3.15;;
54167;SDS011;68429;50.958;3.592;2023-09-07T09:46:40;4.50;;;3.47;;
54167;SDS011;68429;50.958;3.592;2023-09-07T09:49:07;8.60;;;3.75;;
54167;SDS011;68429;50.958;3.592;2023-09-07T09:54:02;7.78;;;3.40;;
54167;SDS011;68429;50.958;3.592;2023-09-07T09:56:28;9.18;;;3.33;;
54167;SDS011;68429;50.958;3.592;2023-09-07T09:58:54;7.65;;;3.05;;
54167;SDS011;68429;50.958;3.592;2023-09-07T10:01:20;7.25;;;3.25;;
54167;SDS011;68429;50.958;3.592;2023-09-07T10:03:48;5.22;;;2.55;;
54167;SDS011;68429;50.958;3.592;2023-09-07T10:06:19;3.22;;;2.88;;
54167;SDS011;68429;50.958;3.592;2023-09-07T10:09:07;4.50;;;3.15;;
54167;SDS011;68429;50.958;3.592;2023-09-07T10:11:36;4.63;;;3.22;;
54167;SDS011;68429;50.958;3.592;2023-09-07T10:14:04;6.70;;;2.92;;
54167;SDS011;68429;50.958;3.592;2023-09-07T10:16:41;6.20;;;3.17;;
54167;SDS011;68429;50.958;3.592;2023-09-07T10:19:21;8.45;;;3.55;;
54167;SDS011;68429;50.958;3.592;2023-09-07T10:21:48;10.00;;;3.35;;
54167;SDS011;68429;50.958;3.592;2023-09-07T10:24:24;8.02;;;3.33;;
54167;SDS011;68429;50.958;3.592;2023-09-07T10:27:04;6.70;;;3.17;;
54167;SDS011;68429;50.958;3.592;2023-09-07T10:29:43;4.47;;;3.08;;
54167;SDS011;68429;50.958;3.592;2023-09-07T10:32:10;6.50;;;2.80;;
54167;SDS011;68429;50.958;3.592;2023-09-07T10:34:37;5.70;;;3.17;;
54167;SDS011;68429;50.958;3.592;2023-09-07T10:37:04;4.68;;;2.90;;
54167;SDS011;68429;50.958;3.592;2023-09-07T10:39:32;3.08;;;2.72;;
54167;SDS011;68429;50.958;3.592;2023-09-07T10:41:58;3.65;;;2.90;;
54167;SDS011;68429;50.958;3.592;2023-09-07T10:44:27;6.00;;;3.00;;
54167;SDS011;68429;50.958;3.592;2023-09-07T10:46:53;9.85;;;2.92;;
54167;SDS011;68429;50.958;3.592;2023-09-07T10:49:19;9.05;;;3.15;;
54167;SDS011;68429;50.958;3.592;2023-09-07T10:51:45;4.55;;;2.55;;
54167;SDS011;68429;50.958;3.592;2023-09-07T10:54:15;4.95;;;2.65;;
54167;SDS011;68429;50.958;3.592;2023-09-07T10:56:50;3.25;;;2.70;;
54167;SDS011;68429;50.958;3.592;2023-09-07T10:59:16;7.45;;;2.55;;
54167;SDS011;68429;50.958;3.592;2023-09-07T11:01:46;8.23;;;3.25;;
54167;SDS011;68429;50.958;3.592;2023-09-07T11:04:13;6.03;;;3.13;;
54167;SDS011;68429;50.958;3.592;2023-09-07T11:06:40;3.00;;;2.70;;
54167;SDS011;68429;50.958;3.592;2023-09-07T11:09:06;3.10;;;2.42;;
54167;SDS011;68429;50.958;3.592;2023-09-07T11:11:35;5.57;;;3.00;;
54167;SDS011;68429;50.958;3.592;2023-09-07T11:14:04;6.25;;;2.75;;
54167;SDS011;68429;50.958;3.592;2023-09-07T11:16:30;5.68;;;2.60;;
54167;SDS011;68429;50.958;3.592;2023-09-07T11:19:02;5.00;;;3.08;;
54167;SDS011;68429;50.958;3.592;2023-09-07T11:21:31;7.13;;;3.10;;
54167;SDS011;68429;50.958;3.592;2023-09-07T11:24:01;7.22;;;3.10;;
54167;SDS011;68429;50.958;3.592;2023-09-07T11:29:05;9.02;;;2.90;;
54167;SDS011;68429;50.958;3.592;2023-09-07T11:31:31;4.88;;;2.90;;
54167;SDS011;68429;50.958;3.592;2023-09-07T11:33:57;4.72;;;3.38;;
54167;SDS011;68429;50.958;3.592;2023-09-07T11:36:22;9.23;;;3.15;;
54167;SDS011;68429;50.958;3.592;2023-09-07T11:38:49;6.07;;;2.90;;
54167;SDS011;68429;50.958;3.592;2023-09-07T11:41:15;4.40;;;2.63;;
54167;SDS011;68429;50.958;3.592;2023-09-07T11:43:41;5.63;;;2.78;;
54167;SDS011;68429;50.958;3.592;2023-09-07T11:46:07;4.40;;;2.83;;
54167;SDS011;68429;50.958;3.592;2023-09-07T11:48:32;3.20;;;2.90;;
54167;SDS011;68429;50.958;3.592;2023-09-07T11:50:59;5.13;;;2.85;;
54167;SDS011;68429;50.958;3.592;2023-09-07T11:53:25;7.57;;;2.78;;
54167;SDS011;68429;50.958;3.592;2023-09-07T11:55:51;8.55;;;3.20;;
54167;SDS011;68429;50.958;3.592;2023-09-07T11:58:16;6.05;;;3.40;;
54167;SDS011;68429;50.958;3.592;2023-09-07T12:00:42;6.93;;;3.25;;
54167;SDS011;68429;50.958;3.592;2023-09-07T12:03:08;8.20;;;3.35;;
54167;SDS011;68429;50.958;3.592;2023-09-07T12:05:34;7.20;;;3.00;;
54167;SDS011;68429;50.958;3.592;2023-09-07T12:08:03;6.93;;;3.38;;
54167;SDS011;68429;50.958;3.592;2023-09-07T12:10:31;5.60;;;2.88;;
54167;SDS011;68429;50.958;3.592;2023-09-07T12:12:56;8.52;;;2.65;;
54167;SDS011;68429;50.958;3.592;2023-09-07T12:15:22;4.80;;;2.90;;
54167;SDS011;68429;50.958;3.592;2023-09-07T12:17:47;8.57;;;2.90;;
54167;SDS011;68429;50.958;3.592;2023-09-07T12:20:14;10.23;;;2.85;;
54167;SDS011;68429;50.958;3.592;2023-09-07T12:22:40;6.97;;;3.00;;
54167;SDS011;68429;50.958;3.592;2023-09-07T12:25:06;6.72;;;3.28;;
54167;SDS011;68429;50.958;3.592;2023-09-07T12:27:32;5.88;;;3.08;;
54167;SDS011;68429;50.958;3.592;2023-09-07T12:29:59;7.55;;;2.78;;
54167;SDS011;68429;50.958;3.592;2023-09-07T12:32:25;5.70;;;2.78;;
54167;SDS011;68429;50.958;3.592;2023-09-07T12:34:51;5.25;;;2.85;;
54167;SDS011;68429;50.958;3.592;2023-09-07T12:37:18;9.27;;;2.92;;
54167;SDS011;68429;50.958;3.592;2023-09-07T12:39:48;5.80;;;2.75;;
54167;SDS011;68429;50.958;3.592;2023-09-07T12:42:14;7.88;;;2.80;;
54167;SDS011;68429;50.958;3.592;2023-09-07T12:44:40;5.72;;;2.58;;
54167;SDS011;68429;50.958;3.592;2023-09-07T12:47:05;12.23;;;3.08;;
54167;SDS011;68429;50.958;3.592;2023-09-07T12:49:31;5.47;;;2.60;;
54167;SDS011;68429;50.958;3.592;2023-09-07T12:51:57;6.40;;;2.90;;
54167;SDS011;68429;50.958;3.592;2023-09-07T12:54:22;13.43;;;3.25;;
54167;SDS011;68429;50.958;3.592;2023-09-07T12:56:48;5.53;;;2.50;;
54167;SDS011;68429;50.958;3.592;2023-09-07T12:59:14;7.72;;;2.90;;
54167;SDS011;68429;50.958;3.592;2023-09-07T13:01:40;7.47;;;2.35;;
54167;SDS011;68429;50.958;3.592;2023-09-07T13:04:05;2.90;;;2.60;;
54167;SDS011;68429;50.958;3.592;2023-09-07T13:06:31;4.90;;;2.70;;
54167;SDS011;68429;50.958;3.592;2023-09-07T13:08:57;10.98;;;3.00;;
54167;SDS011;68429;50.958;3.592;2023-09-07T13:11:23;8.52;;;2.63;;
54167;SDS011;68429;50.958;3.592;2023-09-07T13:13:48;2.35;;;2.15;;
54167;SDS011;68429;50.958;3.592;2023-09-07T13:16:14;2.80;;;2.20;;
54167;SDS011;68429;50.958;3.592;2023-09-07T13:18:40;4.78;;;2.40;;
54167;SDS011;68429;50.958;3.592;2023-09-07T13:21:07;3.63;;;2.20;;
54167;SDS011;68429;50.958;3.592;2023-09-07T13:23:32;10.00;;;2.55;;
54167;SDS011;68429;50.958;3.592;2023-09-07T13:25:58;5.60;;;2.30;;
54167;SDS011;68429;50.958;3.592;2023-09-07T13:28:26;3.90;;;2.58;;
54167;SDS011;68429;50.958;3.592;2023-09-07T13:30:51;3.65;;;2.80;;
54167;SDS011;68429;50.958;3.592;2023-09-07T13:33:17;3.60;;;2.25;;
54167;SDS011;68429;50.958;3.592;2023-09-07T13:35:42;5.47;;;2.50;;
54167;SDS011;68429;50.958;3.592;2023-09-07T13:38:09;5.13;;;2.42;;
54167;SDS011;68429;50.958;3.592;2023-09-07T13:40:35;4.82;;;2.55;;
54167;SDS011;68429;50.958;3.592;2023-09-07T13:43:00;3.95;;;2.20;;
54167;SDS011;68429;50.958;3.592;2023-09-07T13:45:26;4.80;;;2.63;;
54167;SDS011;68429;50.958;3.592;2023-09-07T13:47:54;18.50;;;3.63;;
54167;SDS011;68429;50.958;3.592;2023-09-07T13:50:20;3.97;;;2.47;;
54167;SDS011;68429;50.958;3.592;2023-09-07T13:52:45;4.20;;;2.50;;
54167;SDS011;68429;50.958;3.592;2023-09-07T13:55:11;7.25;;;2.88;;
54167;SDS011;68429;50.958;3.592;2023-09-07T13:57:36;7.40;;;2.60;;
54167;SDS011;68429;50.958;3.592;2023-09-07T14:00:02;5.50;;;2.67;;
54167;SDS011;68429;50.958;3.592;2023-09-07T14:02:30;4.57;;;2.90;;
54167;SDS011;68429;50.958;3.592;2023-09-07T14:04:57;4.32;;;2.72;;
54167;SDS011;68429;50.958;3.592;2023-09-07T14:07:23;5.75;;;2.88;;
54167;SDS011;68429;50.958;3.592;2023-09-07T14:09:50;7.88;;;2.85;;
54167;SDS011;68429;50.958;3.592;2023-09-07T14:12:19;6.15;;;2.88;;
54167;SDS011;68429;50.958;3.592;2023-09-07T14:14:45;4.07;;;2.55;;
54167;SDS011;68429;50.958;3.592;2023-09-07T14:17:11;5.32;;;2.65;;
54167;SDS011;68429;50.958;3.592;2023-09-07T14:19:36;3.97;;;2.70;;
54167;SDS011;68429;50.958;3.592;2023-09-07T14:22:02;2.88;;;2.58;;
54167;SDS011;68429;50.958;3.592;2023-09-07T14:24:28;4.05;;;2.60;;
54167;SDS011;68429;50.958;3.592;2023-09-07T14:26:53;9.70;;;2.63;;
54167;SDS011;68429;50.958;3.592;2023-09-07T14:29:19;4.80;;;3.00;;
54167;SDS011;68429;50.958;3.592;2023-09-07T14:31:45;3.78;;;2.30;;
54167;SDS011;68429;50.958;3.592;2023-09-07T14:34:11;8.88;;;2.50;;
54167;SDS011;68429;50.958;3.592;2023-09-07T14:36:38;10.63;;;2.47;;
54167;SDS011;68429;50.958;3.592;2023-09-07T14:39:07;4.45;;;2.55;;
54167;SDS011;68429;50.958;3.592;2023-09-07T14:41:33;6.32;;;3.00;;
54167;SDS011;68429;50.958;3.592;2023-09-07T14:44:00;5.90;;;2.40;;